createdAt,value
2022-09-22T00:01:33.377Z,75.65
2022-09-22T00:04:05.925Z,74.68
2022-09-22T00:06:36.512Z,74.98
2022-09-22T00:09:07.532Z,74.93
2022-09-22T00:11:37.575Z,75.68
2022-09-22T00:14:08.203Z,75.07
2022-09-22T00:16:39.062Z,75.18
2022-09-22T00:19:07.666Z,75.23
2022-09-22T00:21:36.161Z,74.97
2022-09-22T00:24:08.057Z,75.41
2022-09-22T00:26:37.986Z,75.18
2022-09-22T00:29:09.725Z,74.82
2022-09-22T00:31:38.984Z,75.08
2022-09-22T00:34:08.680Z,74.87
2022-09-22T00:36:36.657Z,75.44
2022-09-22T00:39:06.052Z,75.58
2022-09-22T00:41:36.258Z,75.82
2022-09-22T00:44:42.694Z,75.75
2022-09-22T00:47:20.499Z,75.76
2022-09-22T00:49:54.690Z,75.35
2022-09-22T00:52:26.753Z,74.87
2022-09-22T00:55:00.495Z,74.82
2022-09-22T00:57:32.498Z,74.87
2022-09-22T01:00:02.561Z,74.28
2022-09-22T01:02:30.645Z,74.50
2022-09-22T01:04:58.856Z,74.01
2022-09-22T01:07:31.083Z,74.02
2022-09-22T01:10:01.155Z,73.81
2022-09-22T01:12:31.984Z,74.42
2022-09-22T01:15:10.275Z,74.09
2022-09-22T01:17:48.314Z,73.91
2022-09-22T01:20:39.340Z,73.53
2022-09-22T01:23:54.363Z,73.92
2022-09-22T01:27:01.681Z,74.02
2022-09-22T01:29:58.278Z,73.71
2022-09-22T01:32:31.308Z,73.94
2022-09-22T01:35:07.785Z,74.38
2022-09-22T01:37:45.371Z,73.32
2022-09-22T01:40:18.868Z,73.80
2022-09-22T01:42:51.148Z,74.52
2022-09-22T01:45:23.748Z,74.07
2022-09-22T01:47:56.098Z,73.66
2022-09-22T01:50:28.884Z,73.78
2022-09-22T01:53:02.235Z,73.38
2022-09-22T01:55:34.835Z,74.61
2022-09-22T01:58:06.648Z,74.78
2022-09-22T02:00:36.782Z,75.07
2022-09-22T02:03:10.113Z,75.05
2022-09-22T02:05:44.027Z,74.39
2022-09-22T02:08:17.012Z,73.97
2022-09-22T02:10:48.641Z,74.21
2022-09-22T02:13:16.592Z,73.94
2022-09-22T02:16:02.986Z,74.34
2022-09-22T02:18:36.366Z,74.34
2022-09-22T02:21:05.730Z,74.12
2022-09-22T02:23:33.755Z,74.43
2022-09-22T02:26:02.947Z,74.66
2022-09-22T02:28:32.740Z,74.41
2022-09-22T02:31:19.499Z,74.54
2022-09-22T02:33:51.784Z,75.16
2022-09-22T02:36:47.875Z,74.62
2022-09-22T02:39:21.185Z,74.12
2022-09-22T02:42:09.891Z,74.94
2022-09-22T02:44:47.880Z,74.99
2022-09-22T02:47:20.339Z,75.09
2022-09-22T02:49:51.623Z,74.92
2022-09-22T02:52:21.807Z,74.62
2022-09-22T02:54:49.744Z,74.49
2022-09-22T02:57:17.766Z,74.68
2022-09-22T02:59:45.776Z,75.55
2022-09-22T03:02:13.859Z,77.18
2022-09-22T03:04:41.805Z,78.81
2022-09-22T03:07:11.150Z,78.42
2022-09-22T03:09:39.077Z,78.10
2022-09-22T03:12:07.625Z,78.17
2022-09-22T03:14:35.518Z,77.83
2022-09-22T03:17:03.445Z,77.14
2022-09-22T03:19:31.886Z,77.28
2022-09-22T03:21:59.765Z,77.23
2022-09-22T03:24:29.631Z,76.80
2022-09-22T03:26:57.472Z,76.50
2022-09-22T03:29:25.395Z,76.47
2022-09-22T03:31:53.308Z,76.46
2022-09-22T03:34:21.280Z,75.64
2022-09-22T03:36:50.008Z,75.94
2022-09-22T03:39:17.961Z,76.13
2022-09-22T03:41:47.127Z,76.01
2022-09-22T03:44:15.009Z,76.42
2022-09-22T03:46:42.998Z,76.45
2022-09-22T03:49:11.134Z,76.17
2022-09-22T03:51:38.989Z,76.20
2022-09-22T03:54:07.093Z,76.30
2022-09-22T03:56:34.947Z,76.21
2022-09-22T03:59:04.544Z,76.02
2022-09-22T04:01:33.899Z,76.19
2022-09-22T04:04:02.045Z,76.27
2022-09-22T04:06:29.932Z,76.29
2022-09-22T04:08:57.845Z,76.43
2022-09-22T04:11:25.837Z,75.74
2022-09-22T04:13:54.193Z,75.89
2022-09-22T04:16:23.520Z,76.35
2022-09-22T04:18:51.495Z,75.78
2022-09-22T04:21:19.428Z,76.15
2022-09-22T04:23:47.364Z,76.37
2022-09-22T04:26:15.451Z,75.90
2022-09-22T04:28:43.446Z,76.62
2022-09-22T04:31:11.361Z,76.74
2022-09-22T04:33:40.789Z,76.44
2022-09-22T04:36:08.969Z,76.16
2022-09-22T04:38:37.168Z,75.64
2022-09-22T04:41:05.310Z,76.14
2022-09-22T04:43:33.222Z,76.39
2022-09-22T04:46:01.544Z,76.49
2022-09-22T04:48:29.524Z,77.05
2022-09-22T04:50:58.652Z,77.09
2022-09-22T04:53:26.708Z,77.30
2022-09-22T04:55:54.565Z,76.68
2022-09-22T04:58:22.860Z,76.80
2022-09-22T05:00:51.039Z,76.26
2022-09-22T05:03:22.196Z,76.45
2022-09-22T05:05:50.414Z,76.37
2022-09-22T05:08:19.731Z,76.38
2022-09-22T05:10:47.699Z,76.50
2022-09-22T05:13:15.600Z,76.67
2022-09-22T05:15:43.485Z,76.55
2022-09-22T05:18:11.672Z,77.09
2022-09-22T05:20:39.644Z,76.21
2022-09-22T05:23:07.871Z,76.15
2022-09-22T05:25:37.052Z,75.73
2022-09-22T05:28:04.836Z,76.17
2022-09-22T05:30:32.639Z,75.74
2022-09-22T05:33:00.424Z,75.74
2022-09-22T05:35:31.771Z,75.88
2022-09-22T05:38:02.332Z,75.98
2022-09-22T05:40:31.034Z,76.19
2022-09-22T05:43:00.304Z,76.61
2022-09-22T05:45:28.127Z,76.59
2022-09-22T05:47:55.916Z,76.62
2022-09-22T05:50:24.211Z,76.27
2022-09-22T05:52:52.103Z,75.87
2022-09-22T05:55:20.029Z,76.07
2022-09-22T05:57:47.899Z,76.37
2022-09-22T06:00:17.351Z,76.49
2022-09-22T06:02:45.721Z,76.34
2022-09-22T06:05:16.011Z,76.63
2022-09-22T06:07:45.968Z,76.62
2022-09-22T06:10:13.824Z,76.52
2022-09-22T06:12:41.769Z,76.00
2022-09-22T06:15:10.346Z,76.18
2022-09-22T06:17:39.695Z,75.78
2022-09-22T06:20:08.468Z,76.06
2022-09-22T06:22:36.404Z,75.81
2022-09-22T06:25:04.781Z,75.49
2022-09-22T06:27:32.614Z,75.18
2022-09-22T06:30:00.521Z,75.40
2022-09-22T06:32:28.466Z,75.45
2022-09-22T06:35:02.440Z,75.77
2022-09-22T06:37:30.330Z,75.35
2022-09-22T06:39:58.113Z,75.72
2022-09-22T06:42:26.457Z,75.53
2022-09-22T06:44:54.641Z,75.15
2022-09-22T06:47:22.481Z,75.59
2022-09-22T06:49:50.383Z,75.48
2022-09-22T06:52:19.614Z,75.92
2022-09-22T06:54:50.560Z,76.02
2022-09-22T06:57:19.776Z,75.53
2022-09-22T06:59:48.350Z,75.97
2022-09-22T07:02:16.283Z,76.32
2022-09-22T07:04:44.245Z,75.94
2022-09-22T07:07:12.228Z,76.88
2022-09-22T07:09:41.354Z,77.18
2022-09-22T07:12:09.228Z,76.17
2022-09-22T07:14:37.029Z,76.85
2022-09-22T07:17:04.893Z,77.04
2022-09-22T07:19:36.224Z,76.91
2022-09-22T07:22:04.228Z,77.38
2022-09-22T07:24:32.059Z,77.34
2022-09-22T07:27:06.951Z,77.42
2022-09-22T07:29:34.865Z,77.83
2022-09-22T07:32:03.860Z,77.64
2022-09-22T07:34:31.919Z,77.62
2022-09-22T07:37:00.459Z,77.08
2022-09-22T07:39:28.274Z,77.43
2022-09-22T07:41:56.049Z,77.27
2022-09-22T07:44:44.641Z,77.38
2022-09-22T07:47:12.944Z,76.62
2022-09-22T07:49:40.726Z,77.26
2022-09-22T07:52:09.955Z,76.41
2022-09-22T07:54:39.721Z,76.51
2022-09-22T07:57:09.569Z,76.81
2022-09-22T07:59:39.647Z,77.00
2022-09-22T08:02:08.130Z,75.71
2022-09-22T08:04:35.956Z,73.67
2022-09-22T08:07:04.047Z,73.19
2022-09-22T08:09:33.533Z,71.12
2022-09-22T08:12:02.231Z,70.30
2022-09-22T08:14:30.364Z,70.00
2022-09-22T08:16:59.553Z,69.37
2022-09-22T08:19:27.319Z,68.29
2022-09-22T08:21:55.109Z,67.74
2022-09-22T08:24:24.059Z,66.97
2022-09-22T08:26:54.177Z,65.09
2022-09-22T08:29:22.088Z,64.29
2022-09-22T08:31:51.304Z,65.08
2022-09-22T08:34:21.735Z,65.27
2022-09-22T08:36:49.782Z,65.80
2022-09-22T08:39:18.909Z,64.46
2022-09-22T08:41:59.554Z,64.39
2022-09-22T08:44:32.830Z,63.96
2022-09-22T08:47:02.217Z,64.29
2022-09-22T08:49:57.086Z,64.15
2022-09-22T08:52:31.022Z,63.56
2022-09-22T08:55:00.234Z,63.08
2022-09-22T08:57:59.848Z,62.75
2022-09-22T09:00:33.251Z,62.76
2022-09-22T09:03:17.680Z,62.90
2022-09-22T09:05:55.824Z,62.93
2022-09-22T09:08:50.769Z,61.82
2022-09-22T09:11:32.152Z,61.77
2022-09-22T09:14:13.583Z,61.24
2022-09-22T09:16:49.755Z,59.79
2022-09-22T09:19:21.215Z,59.57
2022-09-22T09:21:53.198Z,58.42
2022-09-22T09:27:23.051Z,56.75
2022-09-22T09:30:02.035Z,56.75
2022-09-22T09:32:38.620Z,57.15
2022-09-22T09:35:13.432Z,57.36
2022-09-22T09:37:44.196Z,57.02
2022-09-22T09:40:15.818Z,56.29
2022-09-22T09:42:47.086Z,57.03
2022-09-22T09:45:17.373Z,56.53
2022-09-22T09:48:02.667Z,56.16
2022-09-22T09:50:32.116Z,57.25
2022-09-22T09:53:01.824Z,57.28
2022-09-22T09:55:29.646Z,57.67
2022-09-22T09:58:08.347Z,57.19
2022-09-22T10:00:52.347Z,57.09
2022-09-22T10:03:26.183Z,56.67
2022-09-22T10:06:00.172Z,57.11
2022-09-22T10:08:32.118Z,57.11
2022-09-22T10:11:01.885Z,57.84
2022-09-22T10:13:32.277Z,57.11
2022-09-22T10:16:19.537Z,57.16
2022-09-22T10:18:48.477Z,56.99
2022-09-22T10:21:18.078Z,55.58
2022-09-22T10:23:48.813Z,55.16
2022-09-22T10:26:20.221Z,55.50
2022-09-22T10:29:08.885Z,54.85
2022-09-22T10:31:38.272Z,53.74
2022-09-22T10:34:07.849Z,54.46
2022-09-22T10:36:44.727Z,54.17
2022-09-22T10:39:18.732Z,54.70
2022-09-22T10:41:49.751Z,54.46
2022-09-22T10:44:37.991Z,54.68
2022-09-22T10:47:27.437Z,54.09
2022-09-22T10:50:22.790Z,53.23
2022-09-22T10:52:56.803Z,52.88
2022-09-22T10:55:31.390Z,53.16
2022-09-22T10:58:27.930Z,53.11
2022-09-22T11:01:14.239Z,53.06
2022-09-22T11:04:03.356Z,52.95
2022-09-22T11:07:06.266Z,53.03
2022-09-22T11:09:59.463Z,52.67
2022-09-22T11:12:40.952Z,52.56
2022-09-22T11:15:39.852Z,52.55
2022-09-22T11:18:27.992Z,52.97
2022-09-22T11:21:07.811Z,52.51
2022-09-22T11:24:00.924Z,52.77
2022-09-22T11:26:44.673Z,51.87
2022-09-22T11:29:57.397Z,51.66
2022-09-22T11:32:40.560Z,52.02
2022-09-22T11:35:41.746Z,52.94
2022-09-22T11:38:28.548Z,52.00
2022-09-22T11:41:15.600Z,51.36
2022-09-22T11:43:59.160Z,50.96
2022-09-22T11:46:38.978Z,51.87
2022-09-22T11:49:17.993Z,53.12
2022-09-22T11:52:01.839Z,53.46
2022-09-22T11:54:47.581Z,52.41
2022-09-22T11:57:19.220Z,51.40
2022-09-22T11:59:54.458Z,51.06
2022-09-22T12:02:27.478Z,50.25
2022-09-22T12:05:00.023Z,49.53
2022-09-22T12:07:32.660Z,48.62
2022-09-22T12:10:03.939Z,49.08
2022-09-22T12:12:33.268Z,49.34
2022-09-22T12:15:08.636Z,49.72
2022-09-22T12:17:44.481Z,46.74
2022-09-22T12:20:30.250Z,47.90
2022-09-22T12:23:36.369Z,48.90
2022-09-22T12:26:08.073Z,50.10
2022-09-22T12:28:40.301Z,48.04
2022-09-22T12:31:12.975Z,47.77
2022-09-22T12:33:51.099Z,47.62
2022-09-22T12:36:28.820Z,48.40
2022-09-22T12:39:08.839Z,49.13
2022-09-22T12:41:48.306Z,50.32
2022-09-22T12:44:23.847Z,50.52
2022-09-22T12:46:53.878Z,51.33
2022-09-22T12:49:24.205Z,51.28
2022-09-22T12:51:53.005Z,51.32
2022-09-22T12:54:38.677Z,51.40
2022-09-22T12:57:28.641Z,52.25
2022-09-22T13:00:12.313Z,51.38
2022-09-22T13:02:45.996Z,49.13
2022-09-22T13:05:34.961Z,49.70
2022-09-22T13:08:03.316Z,49.74
2022-09-22T13:10:52.332Z,50.03
2022-09-22T13:13:36.901Z,49.98
2022-09-22T13:16:21.313Z,49.66
2022-09-22T13:18:59.877Z,49.76
2022-09-22T13:21:30.474Z,48.03
2022-09-22T13:24:00.080Z,46.53
2022-09-22T13:26:30.244Z,46.54
2022-09-22T13:29:07.883Z,45.47
2022-09-22T13:31:43.978Z,45.69
2022-09-22T13:34:25.331Z,46.33
2022-09-22T13:36:57.678Z,46.42
2022-09-22T13:39:28.228Z,46.51
2022-09-22T13:42:00.216Z,46.37
2022-09-22T13:44:31.853Z,46.24
2022-09-22T13:47:03.075Z,45.31
2022-09-22T13:49:35.644Z,45.27
2022-09-22T13:52:08.493Z,44.64
2022-09-22T13:54:38.537Z,43.88
2022-09-22T13:57:08.938Z,42.09
2022-09-22T13:59:42.187Z,42.42
2022-09-22T14:02:12.419Z,41.65
2022-09-22T14:04:50.734Z,41.87
2022-09-22T14:07:22.186Z,41.76
2022-09-22T14:09:50.890Z,41.08
2022-09-22T14:12:19.016Z,39.37
2022-09-22T14:14:46.953Z,39.33
2022-09-22T14:17:19.249Z,39.51
2022-09-22T14:19:55.795Z,39.18
2022-09-22T14:22:27.082Z,38.31
2022-09-22T14:24:57.162Z,37.42
2022-09-22T14:27:31.453Z,37.85
2022-09-22T14:30:00.104Z,38.32
2022-09-22T14:32:34.999Z,38.45
2022-09-22T14:35:06.808Z,39.05
2022-09-22T14:37:39.254Z,39.25
2022-09-22T14:40:16.008Z,39.15
2022-09-22T14:42:55.713Z,39.12
2022-09-22T14:45:24.550Z,38.71
2022-09-22T14:48:10.951Z,38.77
2022-09-22T14:50:42.401Z,38.32
2022-09-22T14:53:22.049Z,38.61
2022-09-22T14:55:52.843Z,39.11
2022-09-22T14:58:24.839Z,39.18
2022-09-22T15:01:12.999Z,38.72
2022-09-22T15:03:42.796Z,39.04
2022-09-22T15:06:13.707Z,38.45
2022-09-22T15:08:44.746Z,38.70
2022-09-22T15:11:13.005Z,38.29
2022-09-22T15:13:41.941Z,36.85
2022-09-22T15:16:43.356Z,36.96
2022-09-22T15:19:13.115Z,36.16
2022-09-22T15:21:46.911Z,36.13
2022-09-22T15:24:21.148Z,36.15
2022-09-22T15:26:49.025Z,36.88
2022-09-22T15:29:17.372Z,37.01
2022-09-22T15:31:45.299Z,36.77
2022-09-22T15:34:16.726Z,36.73
2022-09-22T15:36:48.780Z,36.99
2022-09-22T15:39:21.746Z,36.78
2022-09-22T15:41:50.378Z,36.91
2022-09-22T15:44:18.369Z,37.53
2022-09-22T15:46:50.276Z,38.57
2022-09-22T15:49:22.371Z,39.20
2022-09-22T15:51:50.639Z,40.14
2022-09-22T15:54:21.947Z,40.34
2022-09-22T15:56:52.212Z,40.82
2022-09-22T15:59:22.265Z,41.06
2022-09-22T16:01:51.743Z,41.44
2022-09-22T16:04:19.639Z,41.60
2022-09-22T16:06:54.252Z,42.06
2022-09-22T16:09:23.651Z,42.33
2022-09-22T16:11:51.527Z,42.44
2022-09-22T16:14:19.810Z,42.72
2022-09-22T16:16:47.597Z,43.29
2022-09-22T16:19:16.092Z,44.42
2022-09-22T16:21:50.472Z,45.35
2022-09-22T16:24:18.920Z,45.62
2022-09-22T16:26:48.098Z,46.28
2022-09-22T16:29:16.021Z,47.27
2022-09-22T16:31:44.049Z,47.91
2022-09-22T16:34:12.427Z,48.39
2022-09-22T16:36:41.702Z,49.04
2022-09-22T16:39:09.718Z,49.20
2022-09-22T16:41:38.148Z,49.64
2022-09-22T16:44:07.328Z,49.97
2022-09-22T16:46:37.732Z,50.54
2022-09-22T16:49:07.358Z,50.99
2022-09-22T16:51:38.159Z,51.37
2022-09-22T16:54:07.437Z,51.29
2022-09-22T16:56:38.170Z,51.69
2022-09-22T16:59:08.064Z,52.05
2022-09-22T17:01:37.826Z,52.29
2022-09-22T17:04:07.061Z,52.48
2022-09-22T17:06:37.634Z,52.39
2022-09-22T17:09:06.675Z,52.50
2022-09-22T17:11:36.615Z,52.46
2022-09-22T17:14:12.230Z,52.50
2022-09-22T17:16:42.402Z,52.93
2022-09-22T17:19:11.982Z,52.87
2022-09-22T17:21:41.021Z,52.68
2022-09-22T17:24:09.855Z,52.51
2022-09-22T17:26:41.175Z,52.15
2022-09-22T17:29:10.891Z,51.73
2022-09-22T17:31:39.925Z,51.55
2022-09-22T17:34:07.875Z,51.41
2022-09-22T17:36:35.782Z,51.80
2022-09-22T17:39:03.769Z,51.80
2022-09-22T17:41:33.557Z,51.94
2022-09-22T17:44:03.167Z,52.07
2022-09-22T17:46:34.378Z,52.04
2022-09-22T17:49:20.385Z,52.10
2022-09-22T17:52:06.696Z,52.64
2022-09-22T17:54:53.258Z,52.63
2022-09-22T17:57:23.017Z,53.20
2022-09-22T17:59:51.849Z,53.99
2022-09-22T18:02:21.989Z,54.04
2022-09-22T18:04:50.127Z,54.40
2022-09-22T18:07:19.948Z,54.93
2022-09-22T18:09:49.583Z,55.41
2022-09-22T18:12:20.327Z,56.06
2022-09-22T18:14:50.153Z,57.01
2022-09-22T18:17:20.065Z,57.85
2022-09-22T18:19:49.385Z,58.96
2022-09-22T18:22:20.900Z,59.22
2022-09-22T18:24:50.381Z,58.88
2022-09-22T18:27:20.654Z,59.23
2022-09-22T18:29:49.955Z,58.63
2022-09-22T18:32:19.669Z,58.15
2022-09-22T18:34:51.158Z,58.44
2022-09-22T18:37:20.388Z,58.69
2022-09-22T18:39:50.223Z,57.69
2022-09-22T18:42:19.063Z,58.40
2022-09-22T18:44:47.651Z,58.10
2022-09-22T18:47:18.465Z,58.35
2022-09-22T18:49:48.161Z,58.76
2022-09-22T18:52:21.549Z,58.83
2022-09-22T18:54:52.983Z,59.59
2022-09-22T18:57:21.722Z,60.35
2022-09-22T18:59:50.920Z,60.62
2022-09-22T19:02:22.446Z,60.26
2022-09-22T19:04:51.234Z,59.91
2022-09-22T19:07:42.476Z,60.13
2022-09-22T19:10:13.438Z,59.49
2022-09-22T19:12:42.406Z,60.09
2022-09-22T19:15:13.811Z,60.43
2022-09-22T19:17:44.255Z,60.65
2022-09-22T19:20:14.514Z,61.01
2022-09-22T19:22:43.968Z,60.67
2022-09-22T19:25:12.408Z,60.67
2022-09-22T19:27:40.760Z,61.28
2022-09-22T19:30:09.708Z,61.95
2022-09-22T19:32:38.156Z,61.88
2022-09-22T19:35:06.964Z,62.27
2022-09-22T19:37:34.837Z,62.47
2022-09-22T19:40:05.283Z,62.25
2022-09-22T19:42:37.984Z,62.92
2022-09-22T19:45:08.301Z,63.27
2022-09-22T19:47:36.072Z,62.84
2022-09-22T19:50:05.172Z,62.64
2022-09-22T19:52:34.871Z,62.93
2022-09-22T19:55:04.363Z,62.06
2022-09-22T19:57:32.885Z,62.38
2022-09-22T20:00:00.745Z,61.93
2022-09-22T20:02:28.555Z,62.93
2022-09-22T20:04:57.067Z,62.36
2022-09-22T20:07:27.692Z,61.61
2022-09-22T20:09:56.448Z,62.30
2022-09-22T20:12:25.588Z,62.36
2022-09-22T20:14:54.508Z,62.79
2022-09-22T20:17:23.110Z,61.84
2022-09-22T20:19:50.937Z,62.10
2022-09-22T20:22:22.855Z,61.94
2022-09-22T20:24:54.006Z,61.44
2022-09-22T20:27:25.909Z,61.61
2022-09-22T20:29:57.325Z,61.80
2022-09-22T20:32:26.377Z,61.05
2022-09-22T20:34:55.335Z,61.87
2022-09-22T20:37:23.556Z,61.80
2022-09-22T20:39:51.445Z,62.58
2022-09-22T20:42:19.312Z,62.43
2022-09-22T20:44:49.002Z,63.57
2022-09-22T20:47:18.125Z,64.71
2022-09-22T20:49:51.344Z,64.39
2022-09-22T20:52:21.018Z,63.57
2022-09-22T20:54:49.739Z,63.70
2022-09-22T20:57:18.248Z,63.45
2022-09-22T20:59:47.111Z,64.28
2022-09-22T21:02:18.538Z,64.10
2022-09-22T21:04:46.361Z,64.36
2022-09-22T21:07:14.166Z,65.22
2022-09-22T21:09:59.543Z,64.09
2022-09-22T21:12:31.347Z,64.30
2022-09-22T21:14:59.751Z,64.18
2022-09-22T21:17:29.617Z,63.88
2022-09-22T21:19:58.093Z,64.01
2022-09-22T21:22:27.982Z,63.97
2022-09-22T21:24:56.156Z,63.75
2022-09-22T21:27:24.669Z,63.83
2022-09-22T21:29:53.121Z,63.56
2022-09-22T21:32:21.036Z,64.07
2022-09-22T21:34:50.290Z,64.02
2022-09-22T21:37:18.143Z,64.11
2022-09-22T21:39:46.352Z,63.77
2022-09-22T21:42:14.148Z,64.33
2022-09-22T21:44:42.050Z,63.48
2022-09-22T21:47:11.412Z,63.89
2022-09-22T21:49:39.422Z,64.25
2022-09-22T21:52:08.607Z,63.96
2022-09-22T21:54:36.418Z,63.81
2022-09-22T21:57:04.229Z,63.72
2022-09-22T21:59:32.073Z,63.67
2022-09-22T22:02:00.534Z,64.46
2022-09-22T22:04:28.414Z,64.65
2022-09-22T22:06:56.496Z,65.27
2022-09-22T22:09:25.936Z,64.99
2022-09-22T22:11:56.372Z,64.56
2022-09-22T22:14:27.195Z,64.99
2022-09-22T22:16:56.201Z,65.16
2022-09-22T22:19:26.848Z,64.61
2022-09-22T22:21:55.730Z,64.86
2022-09-22T22:24:33.722Z,64.74
2022-09-22T22:27:05.667Z,64.53
2022-09-22T22:29:35.260Z,65.02
2022-09-22T22:32:04.083Z,64.88
2022-09-22T22:34:31.969Z,64.81
2022-09-22T22:37:00.445Z,64.75
2022-09-22T22:39:30.085Z,65.02
2022-09-22T22:41:58.101Z,65.18
2022-09-22T22:44:26.077Z,65.49
2022-09-22T22:46:54.063Z,65.15
2022-09-22T22:49:22.118Z,65.36
2022-09-22T22:51:52.056Z,65.84
2022-09-22T22:54:20.059Z,66.08
2022-09-22T22:56:51.509Z,66.25
2022-09-22T22:59:19.920Z,66.04
2022-09-22T23:01:47.859Z,66.33
2022-09-22T23:04:16.628Z,66.84
2022-09-22T23:06:44.982Z,66.39
2022-09-22T23:09:15.114Z,65.78
2022-09-22T23:11:45.576Z,65.89
2022-09-22T23:14:16.207Z,66.05
2022-09-22T23:16:46.279Z,66.37
2022-09-22T23:19:16.063Z,67.49
2022-09-22T23:21:44.963Z,68.13
2022-09-22T23:24:15.593Z,68.34
2022-09-22T23:26:43.811Z,68.58
2022-09-22T23:29:11.695Z,68.20
2022-09-22T23:31:41.035Z,67.99
2022-09-22T23:34:09.106Z,68.28
2022-09-22T23:36:37.188Z,67.36
2022-09-22T23:39:05.348Z,67.46
2022-09-22T23:41:34.861Z,67.32
2022-09-22T23:44:03.427Z,67.35
2022-09-22T23:46:31.789Z,67.63
2022-09-22T23:49:01.241Z,67.55
2022-09-22T23:51:29.143Z,67.49
2022-09-22T23:53:57.579Z,67.61
2022-09-22T23:56:25.930Z,67.83
2022-09-22T23:58:53.896Z,68.17
